sensor_id;sensor_type;location;lat;lon;timestamp;P1;durP1;ratioP1;P2;durP2;ratioP2
1390;SDS011;690;51.454;7.194;2024-03-23T00:55:09;15.97;;;4.50;;
1390;SDS011;690;51.454;7.194;2024-03-23T00:57:36;18.40;;;4.90;;
1390;SDS011;690;51.454;7.194;2024-03-23T01:00:02;10.80;;;4.20;;
1390;SDS011;690;51.454;7.194;2024-03-23T01:02:31;12.00;;;4.07;;
1390;SDS011;690;51.454;7.194;2024-03-23T01:04:57;15.90;;;4.77;;
1390;SDS011;690;51.454;7.194;2024-03-23T01:07:24;12.37;;;4.90;;
1390;SDS011;690;51.454;7.194;2024-03-23T01:09:49;13.43;;;4.33;;
1390;SDS011;690;51.454;7.194;2024-03-23T01:12:18;19.40;;;5.37;;
1390;SDS011;690;51.454;7.194;2024-03-23T01:14:44;17.60;;;6.40;;
1390;SDS011;690;51.454;7.194;2024-03-23T01:17:11;9.57;;;4.43;;
1390;SDS011;690;51.454;7.194;2024-03-23T01:19:37;14.17;;;4.50;;
1390;SDS011;690;51.454;7.194;2024-03-23T01:22:06;20.03;;;4.83;;
1390;SDS011;690;51.454;7.194;2024-03-23T01:24:32;13.50;;;4.07;;
1390;SDS011;690;51.454;7.194;2024-03-23T01:26:59;9.90;;;3.77;;
1390;SDS011;690;51.454;7.194;2024-03-23T01:29:26;16.67;;;4.53;;
1390;SDS011;690;51.454;7.194;2024-03-23T01:31:53;8.53;;;2.20;;
1390;SDS011;690;51.454;7.194;2024-03-23T01:34:19;10.20;;;2.97;;
1390;SDS011;690;51.454;7.194;2024-03-23T01:36:47;6.53;;;2.50;;
1390;SDS011;690;51.454;7.194;2024-03-23T01:39:12;10.77;;;2.97;;
1390;SDS011;690;51.454;7.194;2024-03-23T01:41:40;6.90;;;2.50;;
1390;SDS011;690;51.454;7.194;2024-03-23T01:44:08;13.33;;;2.83;;
1390;SDS011;690;51.454;7.194;2024-03-23T01:46:38;10.73;;;3.70;;
1390;SDS011;690;51.454;7.194;2024-03-23T01:49:06;7.07;;;2.67;;
1390;SDS011;690;51.454;7.194;2024-03-23T01:51:33;8.20;;;2.90;;
1390;SDS011;690;51.454;7.194;2024-03-23T01:54:01;5.40;;;2.10;;
1390;SDS011;690;51.454;7.194;2024-03-23T01:56:28;3.07;;;2.23;;
1390;SDS011;690;51.454;7.194;2024-03-23T01:58:55;18.43;;;4.10;;
1390;SDS011;690;51.454;7.194;2024-03-23T02:01:21;9.93;;;3.03;;
1390;SDS011;690;51.454;7.194;2024-03-23T02:03:50;10.03;;;3.07;;
1390;SDS011;690;51.454;7.194;2024-03-23T02:06:16;5.20;;;2.00;;
1390;SDS011;690;51.454;7.194;2024-03-23T02:08:43;5.13;;;1.97;;
1390;SDS011;690;51.454;7.194;2024-03-23T02:11:09;10.53;;;2.27;;
1390;SDS011;690;51.454;7.194;2024-03-23T02:13:36;9.70;;;2.30;;
1390;SDS011;690;51.454;7.194;2024-03-23T02:16:02;11.13;;;2.67;;
1390;SDS011;690;51.454;7.194;2024-03-23T02:18:31;7.33;;;2.63;;
1390;SDS011;690;51.454;7.194;2024-03-23T02:20:58;6.30;;;2.30;;
1390;SDS011;690;51.454;7.194;2024-03-23T02:23:26;7.00;;;2.60;;
1390;SDS011;690;51.454;7.194;2024-03-23T02:25:52;7.33;;;2.90;;
1390;SDS011;690;51.454;7.194;2024-03-23T02:28:19;7.90;;;3.07;;
1390;SDS011;690;51.454;7.194;2024-03-23T02:30:45;9.40;;;2.83;;
1390;SDS011;690;51.454;7.194;2024-03-23T02:33:12;5.13;;;2.70;;
1390;SDS011;690;51.454;7.194;2024-03-23T02:35:38;6.60;;;2.80;;
1390;SDS011;690;51.454;7.194;2024-03-23T02:38:05;10.63;;;2.70;;
1390;SDS011;690;51.454;7.194;2024-03-23T02:40:32;8.23;;;2.83;;
1390;SDS011;690;51.454;7.194;2024-03-23T02:42:59;11.63;;;3.17;;
1390;SDS011;690;51.454;7.194;2024-03-23T02:45:25;10.80;;;3.20;;
1390;SDS011;690;51.454;7.194;2024-03-23T02:47:52;8.20;;;2.93;;
1390;SDS011;690;51.454;7.194;2024-03-23T02:50:18;10.23;;;2.93;;
1390;SDS011;690;51.454;7.194;2024-03-23T02:52:45;11.37;;;3.77;;
1390;SDS011;690;51.454;7.194;2024-03-23T02:55:11;6.67;;;2.77;;
1390;SDS011;690;51.454;7.194;2024-03-23T02:57:40;8.00;;;2.73;;
1390;SDS011;690;51.454;7.194;2024-03-23T03:00:06;13.57;;;4.50;;
1390;SDS011;690;51.454;7.194;2024-03-23T03:02:36;9.40;;;2.93;;
1390;SDS011;690;51.454;7.194;2024-03-23T03:05:02;10.23;;;3.60;;
1390;SDS011;690;51.454;7.194;2024-03-23T03:07:30;6.93;;;3.27;;
1390;SDS011;690;51.454;7.194;2024-03-23T03:09:56;8.20;;;2.67;;
1390;SDS011;690;51.454;7.194;2024-03-23T03:12:22;13.93;;;3.60;;
1390;SDS011;690;51.454;7.194;2024-03-23T03:14:50;5.60;;;2.43;;
1390;SDS011;690;51.454;7.194;2024-03-23T03:17:17;8.10;;;2.80;;
1390;SDS011;690;51.454;7.194;2024-03-23T03:19:44;12.97;;;3.33;;
1390;SDS011;690;51.454;7.194;2024-03-23T03:22:12;10.57;;;3.20;;
1390;SDS011;690;51.454;7.194;2024-03-23T03:24:37;9.83;;;4.77;;
1390;SDS011;690;51.454;7.194;2024-03-23T03:27:04;8.50;;;3.13;;
1390;SDS011;690;51.454;7.194;2024-03-23T03:29:31;7.93;;;3.03;;
1390;SDS011;690;51.454;7.194;2024-03-23T03:32:02;5.93;;;3.03;;
1390;SDS011;690;51.454;7.194;2024-03-23T03:34:28;9.90;;;3.70;;
1390;SDS011;690;51.454;7.194;2024-03-23T03:36:55;6.13;;;3.30;;
1390;SDS011;690;51.454;7.194;2024-03-23T03:39:22;12.90;;;2.73;;
1390;SDS011;690;51.454;7.194;2024-03-23T03:41:48;10.10;;;3.20;;
1390;SDS011;690;51.454;7.194;2024-03-23T03:44:15;11.10;;;2.93;;
1390;SDS011;690;51.454;7.194;2024-03-23T03:46:42;7.50;;;2.77;;
1390;SDS011;690;51.454;7.194;2024-03-23T03:49:09;9.90;;;3.10;;
1390;SDS011;690;51.454;7.194;2024-03-23T03:51:36;8.50;;;2.70;;
1390;SDS011;690;51.454;7.194;2024-03-23T03:54:02;10.37;;;3.73;;
1390;SDS011;690;51.454;7.194;2024-03-23T03:56:29;13.17;;;4.03;;
1390;SDS011;690;51.454;7.194;2024-03-23T03:58:55;8.13;;;3.60;;
1390;SDS011;690;51.454;7.194;2024-03-23T04:01:22;16.77;;;4.60;;
1390;SDS011;690;51.454;7.194;2024-03-23T04:03:48;11.17;;;4.30;;
1390;SDS011;690;51.454;7.194;2024-03-23T04:06:19;12.67;;;3.73;;
1390;SDS011;690;51.454;7.194;2024-03-23T04:08:45;13.63;;;3.60;;
1390;SDS011;690;51.454;7.194;2024-03-23T04:11:12;4.93;;;2.70;;
1390;SDS011;690;51.454;7.194;2024-03-23T04:13:38;6.93;;;3.10;;
1390;SDS011;690;51.454;7.194;2024-03-23T04:16:06;8.93;;;3.40;;
1390;SDS011;690;51.454;7.194;2024-03-23T04:18:32;11.80;;;3.70;;
1390;SDS011;690;51.454;7.194;2024-03-23T04:21:00;9.30;;;5.20;;
1390;SDS011;690;51.454;7.194;2024-03-23T04:23:27;10.93;;;2.67;;
1390;SDS011;690;51.454;7.194;2024-03-23T04:25:54;6.40;;;3.40;;
1390;SDS011;690;51.454;7.194;2024-03-23T04:28:20;12.90;;;3.30;;
1390;SDS011;690;51.454;7.194;2024-03-23T04:30:47;12.37;;;2.47;;
1390;SDS011;690;51.454;7.194;2024-03-23T04:33:13;7.07;;;2.50;;
1390;SDS011;690;51.454;7.194;2024-03-23T04:35:40;8.70;;;2.80;;
1390;SDS011;690;51.454;7.194;2024-03-23T04:38:05;15.30;;;3.40;;
1390;SDS011;690;51.454;7.194;2024-03-23T04:40:35;9.10;;;2.93;;
1390;SDS011;690;51.454;7.194;2024-03-23T04:43:02;10.10;;;3.13;;
1390;SDS011;690;51.454;7.194;2024-03-23T04:45:29;8.33;;;5.47;;
1390;SDS011;690;51.454;7.194;2024-03-23T04:47:56;15.53;;;4.53;;
1390;SDS011;690;51.454;7.194;2024-03-23T04:50:23;7.70;;;3.00;;
1390;SDS011;690;51.454;7.194;2024-03-23T04:52:50;10.93;;;3.13;;
1390;SDS011;690;51.454;7.194;2024-03-23T04:55:17;12.47;;;3.83;;
1390;SDS011;690;51.454;7.194;2024-03-23T04:57:45;16.87;;;3.90;;
1390;SDS011;690;51.454;7.194;2024-03-23T05:00:12;16.97;;;4.37;;
1390;SDS011;690;51.454;7.194;2024-03-23T05:02:43;14.07;;;4.07;;
1390;SDS011;690;51.454;7.194;2024-03-23T05:05:10;6.90;;;4.47;;
1390;SDS011;690;51.454;7.194;2024-03-23T05:07:39;16.67;;;4.60;;
1390;SDS011;690;51.454;7.194;2024-03-23T05:10:06;10.60;;;5.07;;
1390;SDS011;690;51.454;7.194;2024-03-23T05:12:36;15.33;;;4.33;;
1390;SDS011;690;51.454;7.194;2024-03-23T05:15:04;14.50;;;4.30;;
1390;SDS011;690;51.454;7.194;2024-03-23T05:17:31;14.87;;;5.00;;
1390;SDS011;690;51.454;7.194;2024-03-23T05:19:57;10.97;;;4.20;;
1390;SDS011;690;51.454;7.194;2024-03-23T05:22:24;11.47;;;3.97;;
1390;SDS011;690;51.454;7.194;2024-03-23T05:24:50;17.33;;;4.17;;
1390;SDS011;690;51.454;7.194;2024-03-23T05:27:17;10.23;;;3.87;;
1390;SDS011;690;51.454;7.194;2024-03-23T05:29:43;9.70;;;3.80;;
1390;SDS011;690;51.454;7.194;2024-03-23T05:32:11;13.27;;;3.67;;
1390;SDS011;690;51.454;7.194;2024-03-23T05:34:37;10.80;;;3.70;;
1390;SDS011;690;51.454;7.194;2024-03-23T05:37:04;9.03;;;4.10;;
1390;SDS011;690;51.454;7.194;2024-03-23T05:39:30;10.50;;;3.50;;
1390;SDS011;690;51.454;7.194;2024-03-23T05:41:57;11.03;;;4.30;;
1390;SDS011;690;51.454;7.194;2024-03-23T05:44:22;14.33;;;4.83;;
1390;SDS011;690;51.454;7.194;2024-03-23T05:46:49;8.10;;;3.90;;
1390;SDS011;690;51.454;7.194;2024-03-23T05:49:17;10.47;;;4.43;;
1390;SDS011;690;51.454;7.194;2024-03-23T05:51:44;11.83;;;5.13;;
1390;SDS011;690;51.454;7.194;2024-03-23T05:54:09;10.13;;;5.30;;
1390;SDS011;690;51.454;7.194;2024-03-23T05:56:36;9.03;;;4.53;;
1390;SDS011;690;51.454;7.194;2024-03-23T05:59:02;10.80;;;5.83;;
1390;SDS011;690;51.454;7.194;2024-03-23T06:01:29;12.90;;;5.40;;
1390;SDS011;690;51.454;7.194;2024-03-23T06:03:57;11.50;;;5.77;;
1390;SDS011;690;51.454;7.194;2024-03-23T06:06:27;17.57;;;6.90;;
1390;SDS011;690;51.454;7.194;2024-03-23T06:08:55;8.23;;;4.67;;
1390;SDS011;690;51.454;7.194;2024-03-23T06:11:22;12.50;;;5.90;;
1390;SDS011;690;51.454;7.194;2024-03-23T06:13:48;18.00;;;5.93;;
1390;SDS011;690;51.454;7.194;2024-03-23T06:16:15;17.67;;;7.40;;
1390;SDS011;690;51.454;7.194;2024-03-23T06:18:41;19.50;;;7.63;;
1390;SDS011;690;51.454;7.194;2024-03-23T06:21:12;14.17;;;6.97;;
1390;SDS011;690;51.454;7.194;2024-03-23T06:23:40;13.77;;;7.00;;
1390;SDS011;690;51.454;7.194;2024-03-23T06:26:07;18.50;;;8.17;;
1390;SDS011;690;51.454;7.194;2024-03-23T06:28:33;17.23;;;7.47;;
1390;SDS011;690;51.454;7.194;2024-03-23T06:31:01;18.87;;;7.20;;
1390;SDS011;690;51.454;7.194;2024-03-23T06:33:27;24.60;;;8.43;;
1390;SDS011;690;51.454;7.194;2024-03-23T06:35:54;18.97;;;7.53;;
1390;SDS011;690;51.454;7.194;2024-03-23T06:38:20;17.27;;;7.50;;
1390;SDS011;690;51.454;7.194;2024-03-23T06:40:48;13.57;;;7.90;;
1390;SDS011;690;51.454;7.194;2024-03-23T06:43:15;21.00;;;7.93;;
1390;SDS011;690;51.454;7.194;2024-03-23T06:45:42;14.80;;;8.00;;
1390;SDS011;690;51.454;7.194;2024-03-23T06:48:08;34.30;;;9.50;;
1390;SDS011;690;51.454;7.194;2024-03-23T06:50:35;16.03;;;8.50;;
1390;SDS011;690;51.454;7.194;2024-03-23T06:53:01;25.57;;;9.43;;
1390;SDS011;690;51.454;7.194;2024-03-23T06:55:30;20.93;;;10.50;;
1390;SDS011;690;51.454;7.194;2024-03-23T06:57:57;19.93;;;11.20;;
1390;SDS011;690;51.454;7.194;2024-03-23T07:00:24;21.63;;;10.43;;
1390;SDS011;690;51.454;7.194;2024-03-23T07:02:51;22.73;;;11.03;;
1390;SDS011;690;51.454;7.194;2024-03-23T07:05:18;20.87;;;9.97;;
1390;SDS011;690;51.454;7.194;2024-03-23T07:07:45;15.63;;;9.70;;
1390;SDS011;690;51.454;7.194;2024-03-23T07:10:12;18.30;;;9.70;;
1390;SDS011;690;51.454;7.194;2024-03-23T07:12:38;15.50;;;9.90;;
1390;SDS011;690;51.454;7.194;2024-03-23T07:15:07;22.83;;;11.03;;
1390;SDS011;690;51.454;7.194;2024-03-23T07:17:33;21.03;;;10.50;;
1390;SDS011;690;51.454;7.194;2024-03-23T07:20:00;22.40;;;12.20;;
1390;SDS011;690;51.454;7.194;2024-03-23T07:22:29;20.03;;;11.67;;
1390;SDS011;690;51.454;7.194;2024-03-23T07:24:56;19.00;;;12.57;;
1390;SDS011;690;51.454;7.194;2024-03-23T07:27:24;25.67;;;10.87;;
1390;SDS011;690;51.454;7.194;2024-03-23T07:29:51;20.60;;;11.20;;
1390;SDS011;690;51.454;7.194;2024-03-23T07:32:19;25.70;;;10.30;;
1390;SDS011;690;51.454;7.194;2024-03-23T07:34:45;19.03;;;10.50;;
1390;SDS011;690;51.454;7.194;2024-03-23T07:37:11;16.77;;;9.97;;
1390;SDS011;690;51.454;7.194;2024-03-23T07:39:39;15.37;;;10.07;;
1390;SDS011;690;51.454;7.194;2024-03-23T07:42:05;15.73;;;9.37;;
1390;SDS011;690;51.454;7.194;2024-03-23T07:44:32;20.37;;;9.60;;
1390;SDS011;690;51.454;7.194;2024-03-23T07:46:58;14.90;;;9.03;;
1390;SDS011;690;51.454;7.194;2024-03-23T07:49:28;17.07;;;9.40;;
1390;SDS011;690;51.454;7.194;2024-03-23T07:51:54;23.17;;;8.90;;
1390;SDS011;690;51.454;7.194;2024-03-23T07:54:21;18.80;;;9.03;;
1390;SDS011;690;51.454;7.194;2024-03-23T07:56:47;12.00;;;7.30;;
1390;SDS011;690;51.454;7.194;2024-03-23T07:59:13;20.00;;;7.90;;
1390;SDS011;690;51.454;7.194;2024-03-23T08:01:39;19.73;;;8.83;;
1390;SDS011;690;51.454;7.194;2024-03-23T08:04:06;14.50;;;6.77;;
1390;SDS011;690;51.454;7.194;2024-03-23T08:06:34;15.53;;;7.43;;
1390;SDS011;690;51.454;7.194;2024-03-23T08:09:00;17.70;;;7.80;;
1390;SDS011;690;51.454;7.194;2024-03-23T08:11:27;18.90;;;8.27;;
1390;SDS011;690;51.454;7.194;2024-03-23T08:13:55;16.80;;;8.83;;
1390;SDS011;690;51.454;7.194;2024-03-23T08:16:21;11.03;;;6.43;;
1390;SDS011;690;51.454;7.194;2024-03-23T08:18:50;18.50;;;6.60;;
1390;SDS011;690;51.454;7.194;2024-03-23T08:21:17;11.37;;;7.07;;
1390;SDS011;690;51.454;7.194;2024-03-23T08:23:45;13.30;;;7.17;;
1390;SDS011;690;51.454;7.194;2024-03-23T08:26:12;16.90;;;6.67;;
1390;SDS011;690;51.454;7.194;2024-03-23T08:28:41;10.33;;;5.10;;
1390;SDS011;690;51.454;7.194;2024-03-23T08:31:08;12.00;;;5.40;;
1390;SDS011;690;51.454;7.194;2024-03-23T08:33:36;15.43;;;6.53;;
1390;SDS011;690;51.454;7.194;2024-03-23T08:36:02;15.63;;;5.80;;
1390;SDS011;690;51.454;7.194;2024-03-23T08:38:31;12.20;;;5.57;;
1390;SDS011;690;51.454;7.194;2024-03-23T08:40:59;11.23;;;5.87;;
1390;SDS011;690;51.454;7.194;2024-03-23T08:43:27;11.93;;;6.50;;
1390;SDS011;690;51.454;7.194;2024-03-23T08:46:02;12.43;;;6.10;;
1390;SDS011;690;51.454;7.194;2024-03-23T08:48:30;12.73;;;5.97;;
1390;SDS011;690;51.454;7.194;2024-03-23T08:51:00;12.33;;;5.53;;
1390;SDS011;690;51.454;7.194;2024-03-23T08:53:27;12.90;;;6.70;;
1390;SDS011;690;51.454;7.194;2024-03-23T08:55:54;17.27;;;6.40;;
1390;SDS011;690;51.454;7.194;2024-03-23T08:58:22;9.57;;;6.00;;
1390;SDS011;690;51.454;7.194;2024-03-23T09:00:49;9.30;;;6.13;;
1390;SDS011;690;51.454;7.194;2024-03-23T09:03:16;14.60;;;5.17;;
1390;SDS011;690;51.454;7.194;2024-03-23T09:05:42;12.73;;;5.33;;
1390;SDS011;690;51.454;7.194;2024-03-23T09:08:09;13.27;;;6.13;;
1390;SDS011;690;51.454;7.194;2024-03-23T09:10:37;12.60;;;6.90;;
1390;SDS011;690;51.454;7.194;2024-03-23T09:13:05;14.93;;;6.23;;
1390;SDS011;690;51.454;7.194;2024-03-23T09:15:33;12.73;;;5.27;;
1390;SDS011;690;51.454;7.194;2024-03-23T09:18:00;15.43;;;6.70;;
1390;SDS011;690;51.454;7.194;2024-03-23T09:20:26;8.40;;;5.07;;
1390;SDS011;690;51.454;7.194;2024-03-23T09:22:53;10.10;;;5.60;;
1390;SDS011;690;51.454;7.194;2024-03-23T09:25:19;10.97;;;5.17;;
1390;SDS011;690;51.454;7.194;2024-03-23T09:27:46;7.90;;;5.03;;
1390;SDS011;690;51.454;7.194;2024-03-23T09:30:12;9.03;;;5.07;;
1390;SDS011;690;51.454;7.194;2024-03-23T09:32:43;9.30;;;4.37;;
1390;SDS011;690;51.454;7.194;2024-03-23T09:35:09;6.40;;;4.33;;
1390;SDS011;690;51.454;7.194;2024-03-23T09:37:36;9.37;;;4.30;;
1390;SDS011;690;51.454;7.194;2024-03-23T09:40:04;10.23;;;3.93;;
1390;SDS011;690;51.454;7.194;2024-03-23T09:42:32;11.80;;;4.13;;
1390;SDS011;690;51.454;7.194;2024-03-23T09:44:59;4.27;;;2.97;;
1390;SDS011;690;51.454;7.194;2024-03-23T09:47:27;9.00;;;4.10;;
1390;SDS011;690;51.454;7.194;2024-03-23T09:49:55;12.97;;;4.00;;
1390;SDS011;690;51.454;7.194;2024-03-23T09:52:22;6.30;;;3.53;;
1390;SDS011;690;51.454;7.194;2024-03-23T09:54:48;8.10;;;4.00;;
1390;SDS011;690;51.454;7.194;2024-03-23T09:57:15;9.60;;;3.37;;
1390;SDS011;690;51.454;7.194;2024-03-23T09:59:41;4.43;;;2.83;;
1390;SDS011;690;51.454;7.194;2024-03-23T10:02:08;4.40;;;2.83;;
1390;SDS011;690;51.454;7.194;2024-03-23T10:04:35;6.63;;;3.73;;
1390;SDS011;690;51.454;7.194;2024-03-23T10:07:12;7.73;;;3.60;;
1390;SDS011;690;51.454;7.194;2024-03-23T10:09:38;9.47;;;4.83;;
1390;SDS011;690;51.454;7.194;2024-03-23T10:12:09;7.30;;;4.40;;
1390;SDS011;690;51.454;7.194;2024-03-23T10:14:35;7.40;;;4.07;;
1390;SDS011;690;51.454;7.194;2024-03-23T10:17:12;7.17;;;3.53;;
1390;SDS011;690;51.454;7.194;2024-03-23T10:19:39;9.20;;;3.63;;
1390;SDS011;690;51.454;7.194;2024-03-23T10:22:08;12.67;;;4.20;;
1390;SDS011;690;51.454;7.194;2024-03-23T10:24:37;7.63;;;3.33;;
1390;SDS011;690;51.454;7.194;2024-03-23T10:27:04;8.13;;;4.13;;
1390;SDS011;690;51.454;7.194;2024-03-23T10:29:30;11.53;;;4.30;;
1390;SDS011;690;51.454;7.194;2024-03-23T10:32:09;7.17;;;3.90;;
1390;SDS011;690;51.454;7.194;2024-03-23T10:34:36;9.70;;;5.20;;
1390;SDS011;690;51.454;7.194;2024-03-23T10:37:04;8.83;;;4.60;;
1390;SDS011;690;51.454;7.194;2024-03-23T10:39:31;8.80;;;4.40;;
1390;SDS011;690;51.454;7.194;2024-03-23T10:42:01;8.33;;;4.37;;
1390;SDS011;690;51.454;7.194;2024-03-23T10:44:29;11.50;;;4.60;;
1390;SDS011;690;51.454;7.194;2024-03-23T10:46:57;8.90;;;4.40;;
1390;SDS011;690;51.454;7.194;2024-03-23T10:49:25;5.87;;;2.80;;
1390;SDS011;690;51.454;7.194;2024-03-23T10:51:54;10.37;;;2.10;;
1390;SDS011;690;51.454;7.194;2024-03-23T10:54:22;4.37;;;2.07;;
1390;SDS011;690;51.454;7.194;2024-03-23T10:56:51;6.90;;;3.07;;
1390;SDS011;690;51.454;7.194;2024-03-23T10:59:34;8.80;;;2.83;;
1390;SDS011;690;51.454;7.194;2024-03-23T11:02:03;4.70;;;2.50;;
1390;SDS011;690;51.454;7.194;2024-03-23T11:04:29;6.77;;;2.87;;
1390;SDS011;690;51.454;7.194;2024-03-23T11:06:57;6.40;;;2.50;;
1390;SDS011;690;51.454;7.194;2024-03-23T11:09:39;8.83;;;3.20;;
1390;SDS011;690;51.454;7.194;2024-03-23T11:14:53;3.87;;;1.37;;
1390;SDS011;690;51.454;7.194;2024-03-23T11:17:21;2.37;;;1.00;;
1390;SDS011;690;51.454;7.194;2024-03-23T11:19:55;2.43;;;0.90;;
1390;SDS011;690;51.454;7.194;2024-03-23T11:25:18;1.23;;;0.77;;
1390;SDS011;690;51.454;7.194;2024-03-23T11:27:47;3.33;;;0.93;;
1390;SDS011;690;51.454;7.194;2024-03-23T11:30:17;1.30;;;1.00;;
1390;SDS011;690;51.454;7.194;2024-03-23T11:32:45;4.53;;;1.63;;
1390;SDS011;690;51.454;7.194;2024-03-23T11:35:25;3.23;;;1.37;;
1390;SDS011;690;51.454;7.194;2024-03-23T11:38:06;3.63;;;2.00;;
1390;SDS011;690;51.454;7.194;2024-03-23T11:40:32;3.50;;;1.27;;
1390;SDS011;690;51.454;7.194;2024-03-23T11:43:01;2.00;;;1.10;;
1390;SDS011;690;51.454;7.194;2024-03-23T11:45:33;1.97;;;1.03;;
1390;SDS011;690;51.454;7.194;2024-03-23T11:48:10;2.67;;;1.67;;
1390;SDS011;690;51.454;7.194;2024-03-23T11:50:37;3.23;;;0.97;;
1390;SDS011;690;51.454;7.194;2024-03-23T11:53:07;4.53;;;1.20;;
1390;SDS011;690;51.454;7.194;2024-03-23T11:55:47;3.30;;;1.53;;
1390;SDS011;690;51.454;7.194;2024-03-23T11:58:15;8.03;;;1.20;;
1390;SDS011;690;51.454;7.194;2024-03-23T12:00:43;4.50;;;1.30;;
1390;SDS011;690;51.454;7.194;2024-03-23T12:03:16;3.00;;;1.37;;
1390;SDS011;690;51.454;7.194;2024-03-23T12:05:46;4.23;;;1.50;;
1390;SDS011;690;51.454;7.194;2024-03-23T12:08:18;7.23;;;1.83;;
1390;SDS011;690;51.454;7.194;2024-03-23T12:10:49;5.43;;;2.10;;
1390;SDS011;690;51.454;7.194;2024-03-23T12:13:18;6.63;;;2.10;;
1390;SDS011;690;51.454;7.194;2024-03-23T12:15:46;7.83;;;2.10;;
1390;SDS011;690;51.454;7.194;2024-03-23T12:18:16;4.53;;;2.10;;
1390;SDS011;690;51.454;7.194;2024-03-23T12:20:42;5.47;;;2.23;;
1390;SDS011;690;51.454;7.194;2024-03-23T12:23:10;5.43;;;2.33;;
1390;SDS011;690;51.454;7.194;2024-03-23T12:25:37;5.00;;;2.53;;
1390;SDS011;690;51.454;7.194;2024-03-23T12:28:06;7.80;;;2.57;;
1390;SDS011;690;51.454;7.194;2024-03-23T12:30:35;7.23;;;2.73;;
1390;SDS011;690;51.454;7.194;2024-03-23T12:33:06;5.17;;;1.70;;
1390;SDS011;690;51.454;7.194;2024-03-23T12:35:32;6.63;;;2.00;;
1390;SDS011;690;51.454;7.194;2024-03-23T12:37:59;3.60;;;2.90;;
1390;SDS011;690;51.454;7.194;2024-03-23T12:40:25;5.60;;;2.53;;
1390;SDS011;690;51.454;7.194;2024-03-23T12:42:52;5.03;;;2.17;;
1390;SDS011;690;51.454;7.194;2024-03-23T12:45:19;3.23;;;1.57;;
1390;SDS011;690;51.454;7.194;2024-03-23T12:47:46;3.70;;;1.83;;
1390;SDS011;690;51.454;7.194;2024-03-23T12:50:13;6.27;;;1.80;;
1390;SDS011;690;51.454;7.194;2024-03-23T12:52:40;4.30;;;1.60;;
1390;SDS011;690;51.454;7.194;2024-03-23T12:55:07;4.27;;;1.67;;
1390;SDS011;690;51.454;7.194;2024-03-23T12:57:34;3.87;;;1.80;;
1390;SDS011;690;51.454;7.194;2024-03-23T13:00:01;4.43;;;1.83;;
1390;SDS011;690;51.454;7.194;2024-03-23T13:02:29;4.60;;;1.70;;
1390;SDS011;690;51.454;7.194;2024-03-23T13:04:55;5.53;;;1.90;;
1390;SDS011;690;51.454;7.194;2024-03-23T13:07:24;3.07;;;1.50;;
1390;SDS011;690;51.454;7.194;2024-03-23T13:09:51;6.07;;;1.80;;
1390;SDS011;690;51.454;7.194;2024-03-23T13:12:18;4.97;;;2.03;;
1390;SDS011;690;51.454;7.194;2024-03-23T13:14:45;3.60;;;1.47;;
1390;SDS011;690;51.454;7.194;2024-03-23T13:17:12;3.67;;;1.53;;
1390;SDS011;690;51.454;7.194;2024-03-23T13:19:39;5.07;;;1.57;;
1390;SDS011;690;51.454;7.194;2024-03-23T13:22:06;5.43;;;2.30;;
1390;SDS011;690;51.454;7.194;2024-03-23T13:24:33;2.70;;;1.30;;
1390;SDS011;690;51.454;7.194;2024-03-23T13:27:00;1.53;;;1.43;;
1390;SDS011;690;51.454;7.194;2024-03-23T13:29:26;1.77;;;1.60;;
1390;SDS011;690;51.454;7.194;2024-03-23T13:31:53;2.30;;;1.50;;
1390;SDS011;690;51.454;7.194;2024-03-23T13:34:19;2.63;;;2.00;;
1390;SDS011;690;51.454;7.194;2024-03-23T13:36:46;3.83;;;1.97;;
1390;SDS011;690;51.454;7.194;2024-03-23T13:39:12;4.63;;;1.60;;
1390;SDS011;690;51.454;7.194;2024-03-23T13:41:42;4.93;;;1.83;;
1390;SDS011;690;51.454;7.194;2024-03-23T13:44:10;1.13;;;1.03;;
1390;SDS011;690;51.454;7.194;2024-03-23T13:46:37;2.70;;;1.37;;
1390;SDS011;690;51.454;7.194;2024-03-23T13:49:05;2.37;;;1.00;;
1390;SDS011;690;51.454;7.194;2024-03-23T13:51:31;6.70;;;2.37;;
1390;SDS011;690;51.454;7.194;2024-03-23T13:53:58;2.20;;;1.27;;
1390;SDS011;690;51.454;7.194;2024-03-23T13:56:26;5.63;;;1.33;;
1390;SDS011;690;51.454;7.194;2024-03-23T13:58:55;2.00;;;1.17;;
1390;SDS011;690;51.454;7.194;2024-03-23T14:01:21;1.63;;;1.30;;
1390;SDS011;690;51.454;7.194;2024-03-23T14:03:49;1.73;;;1.33;;
1390;SDS011;690;51.454;7.194;2024-03-23T14:06:15;5.47;;;2.13;;
1390;SDS011;690;51.454;7.194;2024-03-23T14:08:42;2.83;;;1.80;;
1390;SDS011;690;51.454;7.194;2024-03-23T14:11:08;3.70;;;1.87;;
1390;SDS011;690;51.454;7.194;2024-03-23T14:13:36;6.50;;;1.83;;
1390;SDS011;690;51.454;7.194;2024-03-23T14:16:04;4.50;;;2.43;;
1390;SDS011;690;51.454;7.194;2024-03-23T14:18:31;6.00;;;2.10;;
1390;SDS011;690;51.454;7.194;2024-03-23T14:20:57;5.60;;;2.60;;
1390;SDS011;690;51.454;7.194;2024-03-23T14:23:25;3.60;;;2.53;;
1390;SDS011;690;51.454;7.194;2024-03-23T14:25:54;5.30;;;2.37;;
1390;SDS011;690;51.454;7.194;2024-03-23T14:28:22;6.00;;;2.20;;
1390;SDS011;690;51.454;7.194;2024-03-23T14:30:48;4.70;;;3.10;;
1390;SDS011;690;51.454;7.194;2024-03-23T14:33:17;6.03;;;2.23;;
1390;SDS011;690;51.454;7.194;2024-03-23T14:35:43;5.00;;;2.43;;
1390;SDS011;690;51.454;7.194;2024-03-23T14:38:18;3.30;;;1.90;;
1390;SDS011;690;51.454;7.194;2024-03-23T14:40:43;7.77;;;2.10;;
1390;SDS011;690;51.454;7.194;2024-03-23T14:43:10;5.53;;;1.93;;
1390;SDS011;690;51.454;7.194;2024-03-23T14:45:36;4.93;;;1.80;;
1390;SDS011;690;51.454;7.194;2024-03-23T14:48:03;5.03;;;2.23;;
1390;SDS011;690;51.454;7.194;2024-03-23T14:50:31;5.13;;;1.60;;
1390;SDS011;690;51.454;7.194;2024-03-23T14:52:59;6.50;;;1.90;;
1390;SDS011;690;51.454;7.194;2024-03-23T14:55:25;4.80;;;1.83;;
1390;SDS011;690;51.454;7.194;2024-03-23T14:57:53;3.67;;;1.73;;
1390;SDS011;690;51.454;7.194;2024-03-23T15:00:20;4.57;;;0.97;;
1390;SDS011;690;51.454;7.194;2024-03-23T15:02:47;2.70;;;1.20;;
1390;SDS011;690;51.454;7.194;2024-03-23T15:05:14;2.90;;;1.33;;
1390;SDS011;690;51.454;7.194;2024-03-23T15:07:44;1.97;;;1.30;;
1390;SDS011;690;51.454;7.194;2024-03-23T15:10:11;3.60;;;1.50;;
1390;SDS011;690;51.454;7.194;2024-03-23T15:12:38;3.33;;;1.37;;
1390;SDS011;690;51.454;7.194;2024-03-23T15:15:05;4.40;;;1.90;;
1390;SDS011;690;51.454;7.194;2024-03-23T15:17:31;4.00;;;1.43;;
1390;SDS011;690;51.454;7.194;2024-03-23T15:20:02;3.37;;;1.90;;
1390;SDS011;690;51.454;7.194;2024-03-23T15:22:31;2.60;;;1.50;;
1390;SDS011;690;51.454;7.194;2024-03-23T15:24:59;3.00;;;1.57;;
1390;SDS011;690;51.454;7.194;2024-03-23T15:27:25;6.93;;;1.27;;
1390;SDS011;690;51.454;7.194;2024-03-23T15:29:52;2.00;;;1.13;;
1390;SDS011;690;51.454;7.194;2024-03-23T15:32:18;4.13;;;1.80;;
1390;SDS011;690;51.454;7.194;2024-03-23T15:34:45;3.67;;;1.20;;
1390;SDS011;690;51.454;7.194;2024-03-23T15:37:10;2.03;;;1.17;;
1390;SDS011;690;51.454;7.194;2024-03-23T15:39:37;5.93;;;1.83;;
1390;SDS011;690;51.454;7.194;2024-03-23T15:42:05;4.47;;;1.10;;
1390;SDS011;690;51.454;7.194;2024-03-23T15:44:32;6.80;;;1.47;;
1390;SDS011;690;51.454;7.194;2024-03-23T15:46:58;2.90;;;1.20;;
1390;SDS011;690;51.454;7.194;2024-03-23T15:49:25;2.60;;;1.23;;
1390;SDS011;690;51.454;7.194;2024-03-23T15:51:51;1.87;;;1.00;;
1390;SDS011;690;51.454;7.194;2024-03-23T15:54:18;3.07;;;1.37;;
1390;SDS011;690;51.454;7.194;2024-03-23T15:56:46;2.73;;;1.20;;
1390;SDS011;690;51.454;7.194;2024-03-23T15:59:15;1.60;;;1.50;;
1390;SDS011;690;51.454;7.194;2024-03-23T16:01:41;2.00;;;1.30;;
1390;SDS011;690;51.454;7.194;2024-03-23T16:04:09;1.60;;;1.03;;
1390;SDS011;690;51.454;7.194;2024-03-23T16:06:35;3.53;;;1.00;;
1390;SDS011;690;51.454;7.194;2024-03-23T16:09:02;2.93;;;1.30;;
1390;SDS011;690;51.454;7.194;2024-03-23T16:11:28;5.67;;;1.57;;
1390;SDS011;690;51.454;7.194;2024-03-23T16:13:55;2.73;;;2.13;;
1390;SDS011;690;51.454;7.194;2024-03-23T16:16:22;7.77;;;1.90;;
1390;SDS011;690;51.454;7.194;2024-03-23T16:18:49;5.40;;;1.80;;
1390;SDS011;690;51.454;7.194;2024-03-23T16:21:15;6.20;;;2.90;;
1390;SDS011;690;51.454;7.194;2024-03-23T16:23:45;2.70;;;1.50;;